sensor_id;sensor_type;location;lat;lon;timestamp;pressure;altitude;pressure_sealevel;temperature;humidity
21902;BME280;11115;46.038;14.612;2024-03-07T00:01:27;98380.13;;;7.75;100.00
21902;BME280;11115;46.038;14.612;2024-03-07T00:04:00;98389.09;;;7.86;100.00
21902;BME280;11115;46.038;14.612;2024-03-07T00:06:35;98388.97;;;7.72;100.00
21902;BME280;11115;46.038;14.612;2024-03-07T00:09:07;98389.03;;;7.67;100.00
21902;BME280;11115;46.038;14.612;2024-03-07T00:11:52;98390.94;;;7.67;100.00
21902;BME280;11115;46.038;14.612;2024-03-07T00:14:28;98387.75;;;7.59;100.00
21902;BME280;11115;46.038;14.612;2024-03-07T00:17:11;98386.56;;;7.66;100.00
21902;BME280;11115;46.038;14.612;2024-03-07T00:19:54;98387.75;;;7.59;100.00
21902;BME280;11115;46.038;14.612;2024-03-07T00:22:28;98371.84;;;7.51;100.00
21902;BME280;11115;46.038;14.612;2024-03-07T00:25:05;98385.16;;;7.68;100.00
21902;BME280;11115;46.038;14.612;2024-03-07T00:27:43;98386.28;;;7.67;100.00
21902;BME280;11115;46.038;14.612;2024-03-07T00:30:16;98382.41;;;7.68;100.00
21902;BME280;11115;46.038;14.612;2024-03-07T00:32:48;98370.28;;;7.69;100.00
21902;BME280;11115;46.038;14.612;2024-03-07T00:35:29;98386.41;;;7.81;100.00
21902;BME280;11115;46.038;14.612;2024-03-07T00:38:05;98383.41;;;7.77;100.00
21902;BME280;11115;46.038;14.612;2024-03-07T00:40:35;98363.13;;;7.68;100.00
21902;BME280;11115;46.038;14.612;2024-03-07T00:43:06;98377.16;;;7.72;100.00
21902;BME280;11115;46.038;14.612;2024-03-07T00:45:41;98368.75;;;7.58;100.00
21902;BME280;11115;46.038;14.612;2024-03-07T00:48:33;98371.16;;;7.65;100.00
21902;BME280;11115;46.038;14.612;2024-03-07T00:51:06;98316.19;;;7.30;100.00
21902;BME280;11115;46.038;14.612;2024-03-07T00:53:41;98371.09;;;7.70;100.00
21902;BME280;11115;46.038;14.612;2024-03-07T00:56:12;98376.97;;;7.63;100.00
21902;BME280;11115;46.038;14.612;2024-03-07T00:58:42;98367.22;;;7.47;100.00
21902;BME280;11115;46.038;14.612;2024-03-07T01:01:13;98371.22;;;7.59;100.00
21902;BME280;11115;46.038;14.612;2024-03-07T01:03:43;98351.50;;;7.52;100.00
21902;BME280;11115;46.038;14.612;2024-03-07T01:06:21;98373.03;;;7.69;100.00
21902;BME280;11115;46.038;14.612;2024-03-07T01:08:52;98367.50;;;7.69;100.00
21902;BME280;11115;46.038;14.612;2024-03-07T01:11:29;98364.25;;;7.67;100.00
21902;BME280;11115;46.038;14.612;2024-03-07T01:14:02;98371.97;;;7.65;100.00
21902;BME280;11115;46.038;14.612;2024-03-07T01:16:40;98366.59;;;7.55;100.00
21902;BME280;11115;46.038;14.612;2024-03-07T01:19:16;98369.34;;;7.55;100.00
21902;BME280;11115;46.038;14.612;2024-03-07T01:21:47;98361.84;;;7.60;100.00
21902;BME280;11115;46.038;14.612;2024-03-07T01:24:34;98356.88;;;7.63;100.00
21902;BME280;11115;46.038;14.612;2024-03-07T01:27:10;98362.97;;;7.59;100.00
21902;BME280;11115;46.038;14.612;2024-03-07T01:29:43;98359.09;;;7.60;100.00
21902;BME280;11115;46.038;14.612;2024-03-07T01:32:18;98362.75;;;7.51;100.00
21902;BME280;11115;46.038;14.612;2024-03-07T01:34:48;98353.94;;;7.54;100.00
21902;BME280;11115;46.038;14.612;2024-03-07T01:37:42;98336.88;;;7.28;100.00
21902;BME280;11115;46.038;14.612;2024-03-07T01:40:16;98348.38;;;7.35;100.00
21902;BME280;11115;46.038;14.612;2024-03-07T01:42:52;98364.06;;;7.35;100.00
21902;BME280;11115;46.038;14.612;2024-03-07T01:45:28;98355.81;;;7.35;100.00
21902;BME280;11115;46.038;14.612;2024-03-07T01:47:59;98357.00;;;7.23;100.00
21902;BME280;11115;46.038;14.612;2024-03-07T01:50:36;98334.56;;;7.11;100.00
21902;BME280;11115;46.038;14.612;2024-03-07T01:53:12;98351.75;;;6.98;100.00
21902;BME280;11115;46.038;14.612;2024-03-07T01:55:50;98357.72;;;6.76;100.00
21902;BME280;11115;46.038;14.612;2024-03-07T01:58:30;98361.53;;;6.80;100.00
21902;BME280;11115;46.038;14.612;2024-03-07T02:01:06;98370.09;;;6.74;100.00
21902;BME280;11115;46.038;14.612;2024-03-07T02:03:37;98358.41;;;6.53;100.00
21902;BME280;11115;46.038;14.612;2024-03-07T02:06:18;98351.50;;;6.60;100.00
21902;BME280;11115;46.038;14.612;2024-03-07T02:08:50;98348.00;;;6.50;100.00
21902;BME280;11115;46.038;14.612;2024-03-07T02:11:22;98353.84;;;6.43;100.00
21902;BME280;11115;46.038;14.612;2024-03-07T02:13:56;98316.31;;;6.23;100.00
21902;BME280;11115;46.038;14.612;2024-03-07T02:16:27;98345.53;;;6.48;100.00
21902;BME280;11115;46.038;14.612;2024-03-07T02:19:03;98357.50;;;6.67;100.00
21902;BME280;11115;46.038;14.612;2024-03-07T02:21:38;98355.03;;;6.66;100.00
21902;BME280;11115;46.038;14.612;2024-03-07T02:24:09;98349.88;;;6.54;100.00
21902;BME280;11115;46.038;14.612;2024-03-07T02:26:44;98303.16;;;6.15;100.00
21902;BME280;11115;46.038;14.612;2024-03-07T02:29:22;98356.34;;;6.34;100.00
21902;BME280;11115;46.038;14.612;2024-03-07T02:31:59;98353.34;;;6.31;100.00
21902;BME280;11115;46.038;14.612;2024-03-07T02:34:29;98352.31;;;6.22;100.00
21902;BME280;11115;46.038;14.612;2024-03-07T02:37:03;98343.31;;;6.11;100.00
21902;BME280;11115;46.038;14.612;2024-03-07T02:39:33;98352.28;;;6.27;100.00
21902;BME280;11115;46.038;14.612;2024-03-07T02:42:02;98342.44;;;6.16;100.00
21902;BME280;11115;46.038;14.612;2024-03-07T02:44:39;98348.50;;;6.18;100.00
21902;BME280;11115;46.038;14.612;2024-03-07T02:47:18;98349.03;;;6.20;100.00
21902;BME280;11115;46.038;14.612;2024-03-07T02:49:57;98339.19;;;6.08;100.00
21902;BME280;11115;46.038;14.612;2024-03-07T02:52:35;98350.16;;;6.19;100.00
21902;BME280;11115;46.038;14.612;2024-03-07T02:55:19;98350.69;;;6.21;100.00
21902;BME280;11115;46.038;14.612;2024-03-07T02:57:52;98348.47;;;6.23;100.00
21902;BME280;11115;46.038;14.612;2024-03-07T03:00:25;98361.66;;;6.21;100.00
21902;BME280;11115;46.038;14.612;2024-03-07T03:03:06;98350.78;;;5.95;100.00
21902;BME280;11115;46.038;14.612;2024-03-07T03:05:46;98358.78;;;5.87;100.00
21902;BME280;11115;46.038;14.612;2024-03-07T03:08:28;98353.91;;;5.68;100.00
21902;BME280;11115;46.038;14.612;2024-03-07T03:11:03;98354.44;;;5.70;100.00
21902;BME280;11115;46.038;14.612;2024-03-07T03:13:42;98347.88;;;5.66;100.00
21902;BME280;11115;46.038;14.612;2024-03-07T03:16:14;98352.63;;;5.35;100.00
21902;BME280;11115;46.038;14.612;2024-03-07T03:19:00;98352.88;;;5.39;100.00
21902;BME280;11115;46.038;14.612;2024-03-07T03:21:32;98336.19;;;5.20;100.00
21902;BME280;11115;46.038;14.612;2024-03-07T03:24:10;98356.75;;;5.43;100.00
21902;BME280;11115;46.038;14.612;2024-03-07T03:26:50;98349.91;;;5.40;100.00
21902;BME280;11115;46.038;14.612;2024-03-07T03:29:25;98352.97;;;5.13;100.00
21902;BME280;11115;46.038;14.612;2024-03-07T03:32:02;98356.50;;;5.19;100.00
21902;BME280;11115;46.038;14.612;2024-03-07T03:34:47;98357.06;;;5.26;100.00
21902;BME280;11115;46.038;14.612;2024-03-07T03:37:17;98360.63;;;5.11;100.00
21902;BME280;11115;46.038;14.612;2024-03-07T03:39:51;98356.81;;;4.97;100.00
21902;BME280;11115;46.038;14.612;2024-03-07T03:42:26;98354.06;;;4.97;100.00
21902;BME280;11115;46.038;14.612;2024-03-07T03:44:59;98363.13;;;4.87;100.00
21902;BME280;11115;46.038;14.612;2024-03-07T03:47:30;98359.03;;;4.90;100.00
21902;BME280;11115;46.038;14.612;2024-03-07T03:50:08;98338.19;;;4.94;100.00
21902;BME280;11115;46.038;14.612;2024-03-07T03:52:47;98373.28;;;4.92;100.00
21902;BME280;11115;46.038;14.612;2024-03-07T03:55:19;98373.28;;;4.87;100.00
21902;BME280;11115;46.038;14.612;2024-03-07T03:57:53;98380.13;;;4.95;100.00
21902;BME280;11115;46.038;14.612;2024-03-07T04:00:28;98374.91;;;4.98;100.00
21902;BME280;11115;46.038;14.612;2024-03-07T04:03:04;98379.03;;;4.96;100.00
21902;BME280;11115;46.038;14.612;2024-03-07T04:05:36;98381.22;;;4.94;100.00
21902;BME280;11115;46.038;14.612;2024-03-07T04:08:13;98379.00;;;5.01;100.00
21902;BME280;11115;46.038;14.612;2024-03-07T04:10:45;98383.97;;;5.04;100.00
21902;BME280;11115;46.038;14.612;2024-03-07T04:13:16;98374.34;;;5.11;100.00
21902;BME280;11115;46.038;14.612;2024-03-07T04:15:50;98377.63;;;5.24;100.00
21902;BME280;11115;46.038;14.612;2024-03-07T04:18:23;98383.94;;;5.14;100.00
21902;BME280;11115;46.038;14.612;2024-03-07T04:21:00;98382.56;;;5.11;100.00
21902;BME280;11115;46.038;14.612;2024-03-07T04:23:41;98383.69;;;5.21;100.00
21902;BME280;11115;46.038;14.612;2024-03-07T04:26:15;98385.00;;;5.33;100.00
21902;BME280;11115;46.038;14.612;2024-03-07T04:28:46;98379.81;;;5.27;100.00
21902;BME280;11115;46.038;14.612;2024-03-07T04:31:19;98357.66;;;5.03;100.00
21902;BME280;11115;46.038;14.612;2024-03-07T04:33:51;98366.94;;;5.22;100.00
21902;BME280;11115;46.038;14.612;2024-03-07T04:36:27;98382.84;;;5.15;100.00
21902;BME280;11115;46.038;14.612;2024-03-07T04:39:05;98375.47;;;5.05;100.00
21902;BME280;11115;46.038;14.612;2024-03-07T04:41:51;98397.13;;;5.22;100.00
21902;BME280;11115;46.038;14.612;2024-03-07T04:44:26;98394.88;;;5.34;100.00
21902;BME280;11115;46.038;14.612;2024-03-07T04:47:03;98403.13;;;5.34;100.00
21902;BME280;11115;46.038;14.612;2024-03-07T04:49:36;98392.16;;;5.29;100.00
21902;BME280;11115;46.038;14.612;2024-03-07T04:52:10;98406.97;;;5.18;100.00
21902;BME280;11115;46.038;14.612;2024-03-07T04:54:45;98404.78;;;5.30;100.00
21902;BME280;11115;46.038;14.612;2024-03-07T04:57:18;98414.66;;;5.26;100.00
21902;BME280;11115;46.038;14.612;2024-03-07T04:59:59;98416.03;;;5.13;100.00
21902;BME280;11115;46.038;14.612;2024-03-07T05:02:41;98422.34;;;5.04;100.00
21902;BME280;11115;46.038;14.612;2024-03-07T05:05:16;98416.03;;;5.03;100.00
21902;BME280;11115;46.038;14.612;2024-03-07T05:07:57;98404.25;;;5.08;100.00
21902;BME280;11115;46.038;14.612;2024-03-07T05:10:30;98419.31;;;5.15;100.00
21902;BME280;11115;46.038;14.612;2024-03-07T05:13:06;98420.69;;;5.18;100.00
21902;BME280;11115;46.038;14.612;2024-03-07T05:15:43;98418.78;;;5.13;100.00
21902;BME280;11115;46.038;14.612;2024-03-07T05:18:16;98406.69;;;4.99;100.00
21902;BME280;11115;46.038;14.612;2024-03-07T05:20:50;98410.28;;;4.95;100.00
21902;BME280;11115;46.038;14.612;2024-03-07T05:23:23;98422.63;;;5.02;100.00
21902;BME280;11115;46.038;14.612;2024-03-07T05:25:58;98402.06;;;4.90;100.00
21902;BME280;11115;46.038;14.612;2024-03-07T05:28:37;98426.47;;;5.06;100.00
21902;BME280;11115;46.038;14.612;2024-03-07T05:31:12;98430.84;;;4.97;100.00
21902;BME280;11115;46.038;14.612;2024-03-07T05:33:44;98430.03;;;5.07;100.00
21902;BME280;11115;46.038;14.612;2024-03-07T05:36:13;98431.91;;;5.01;100.00
21902;BME280;11115;46.038;14.612;2024-03-07T05:38:46;98438.50;;;5.00;100.00
21902;BME280;11115;46.038;14.612;2024-03-07T05:41:25;98429.19;;;5.01;100.00
21902;BME280;11115;46.038;14.612;2024-03-07T05:44:09;98438.50;;;5.00;100.00
21902;BME280;11115;46.038;14.612;2024-03-07T05:46:43;98439.59;;;4.94;100.00
21902;BME280;11115;46.038;14.612;2024-03-07T05:49:18;98436.88;;;4.89;100.00
21902;BME280;11115;46.038;14.612;2024-03-07T05:51:46;98427.22;;;4.56;100.00
21902;BME280;11115;46.038;14.612;2024-03-07T05:54:24;98442.34;;;4.64;100.00
21902;BME280;11115;46.038;14.612;2024-03-07T05:57:03;98443.69;;;4.81;100.00
21902;BME280;11115;46.038;14.612;2024-03-07T05:59:38;98440.97;;;4.71;100.00
21902;BME280;11115;46.038;14.612;2024-03-07T06:02:13;98460.16;;;4.71;100.00
21902;BME280;11115;46.038;14.612;2024-03-07T06:04:46;98457.94;;;4.73;100.00
21902;BME280;11115;46.038;14.612;2024-03-07T06:07:32;98457.94;;;4.73;100.00
21902;BME280;11115;46.038;14.612;2024-03-07T06:10:04;98463.72;;;4.77;100.00
21902;BME280;11115;46.038;14.612;2024-03-07T06:12:42;98462.84;;;4.61;100.00
21902;BME280;11115;46.038;14.612;2024-03-07T06:15:39;98469.19;;;4.67;100.00
21902;BME280;11115;46.038;14.612;2024-03-07T06:18:18;98470.25;;;4.61;100.00
21902;BME280;11115;46.038;14.612;2024-03-07T06:20:53;98465.59;;;4.56;100.00
21902;BME280;11115;46.038;14.612;2024-03-07T06:23:30;98474.13;;;4.70;100.00
21902;BME280;11115;46.038;14.612;2024-03-07T06:26:02;98469.47;;;4.65;100.00
21902;BME280;11115;46.038;14.612;2024-03-07T06:29:04;98477.97;;;4.69;100.00
21902;BME280;11115;46.038;14.612;2024-03-07T06:31:38;98443.66;;;4.51;100.00
21902;BME280;11115;46.038;14.612;2024-03-07T06:34:12;98482.06;;;4.71;100.00
21902;BME280;11115;46.038;14.612;2024-03-07T06:36:49;98485.34;;;4.68;100.00
21902;BME280;11115;46.038;14.612;2024-03-07T06:39:23;98487.28;;;4.78;100.00
21902;BME280;11115;46.038;14.612;2024-03-07T06:41:58;98490.28;;;4.76;100.00
21902;BME280;11115;46.038;14.612;2024-03-07T06:44:28;98473.81;;;4.61;100.00
21902;BME280;11115;46.038;14.612;2024-03-07T06:46:58;98493.59;;;4.78;100.00
21902;BME280;11115;46.038;14.612;2024-03-07T06:49:31;98488.94;;;4.84;100.00
21902;BME280;11115;46.038;14.612;2024-03-07T06:52:04;98497.72;;;4.91;100.00
21902;BME280;11115;46.038;14.612;2024-03-07T06:54:39;98498.56;;;4.86;100.00
21902;BME280;11115;46.038;14.612;2024-03-07T06:57:17;98507.31;;;4.94;100.00
21902;BME280;11115;46.038;14.612;2024-03-07T06:59:55;98469.72;;;4.69;100.00
21902;BME280;11115;46.038;14.612;2024-03-07T07:02:46;98510.63;;;5.01;100.00
21902;BME280;11115;46.038;14.612;2024-03-07T07:05:21;98518.84;;;5.01;100.00
21902;BME280;11115;46.038;14.612;2024-03-07T07:07:56;98513.38;;;5.06;100.00
21902;BME280;11115;46.038;14.612;2024-03-07T07:10:29;98515.31;;;5.10;100.00
21902;BME280;11115;46.038;14.612;2024-03-07T07:13:02;98517.22;;;5.20;100.00
21902;BME280;11115;46.038;14.612;2024-03-07T07:15:39;98519.13;;;5.14;100.00
21902;BME280;11115;46.038;14.612;2024-03-07T07:18:17;98521.63;;;5.26;100.00
21902;BME280;11115;46.038;14.612;2024-03-07T07:20:52;98525.47;;;5.35;100.00
21902;BME280;11115;46.038;14.612;2024-03-07T07:23:31;98501.88;;;5.29;100.00
21902;BME280;11115;46.038;14.612;2024-03-07T07:26:07;98520.53;;;5.42;100.00
21902;BME280;11115;46.038;14.612;2024-03-07T07:28:40;98499.13;;;5.44;100.00
21902;BME280;11115;46.038;14.612;2024-03-07T07:31:18;98518.88;;;5.67;100.00
21902;BME280;11115;46.038;14.612;2024-03-07T07:33:55;98506.22;;;5.71;100.00
21902;BME280;11115;46.038;14.612;2024-03-07T07:36:35;98522.44;;;5.67;100.00
21902;BME280;11115;46.038;14.612;2024-03-07T07:39:09;98518.31;;;5.65;100.00
21902;BME280;11115;46.038;14.612;2024-03-07T07:41:48;98523.25;;;5.58;100.00
21902;BME280;11115;46.038;14.612;2024-03-07T07:44:19;98519.97;;;5.71;100.00
21902;BME280;11115;46.038;14.612;2024-03-07T07:46:55;98528.47;;;5.74;100.00
21902;BME280;11115;46.038;14.612;2024-03-07T07:49:30;98529.31;;;5.65;100.00
21902;BME280;11115;46.038;14.612;2024-03-07T07:51:59;98518.88;;;5.62;100.00
21902;BME280;11115;46.038;14.612;2024-03-07T07:54:34;98526.53;;;5.80;100.00
21902;BME280;11115;46.038;14.612;2024-03-07T07:57:11;98530.38;;;5.89;100.00
21902;BME280;11115;46.038;14.612;2024-03-07T07:59:43;98526.53;;;5.95;100.00
21902;BME280;11115;46.038;14.612;2024-03-07T08:02:20;98531.75;;;5.97;100.00
21902;BME280;11115;46.038;14.612;2024-03-07T08:05:05;98536.41;;;6.06;100.00
21902;BME280;11115;46.038;14.612;2024-03-07T08:07:42;98534.19;;;6.19;100.00
21902;BME280;11115;46.038;14.612;2024-03-07T08:10:15;98531.16;;;6.20;100.00
21902;BME280;11115;46.038;14.612;2024-03-07T08:12:47;98515.72;;;6.29;100.00
21902;BME280;11115;46.038;14.612;2024-03-07T08:15:30;98531.03;;;6.56;100.00
21902;BME280;11115;46.038;14.612;2024-03-07T08:18:13;98528.00;;;6.57;100.00
21902;BME280;11115;46.038;14.612;2024-03-07T08:20:46;98523.03;;;6.59;100.00
21902;BME280;11115;46.038;14.612;2024-03-07T08:23:22;98525.88;;;6.88;100.00
21902;BME280;11115;46.038;14.612;2024-03-07T08:26:06;98527.50;;;6.99;100.00
21902;BME280;11115;46.038;14.612;2024-03-07T08:28:52;98524.44;;;7.01;100.00
21902;BME280;11115;46.038;14.612;2024-03-07T08:31:29;98523.69;;;7.29;100.00
21902;BME280;11115;46.038;14.612;2024-03-07T08:34:02;98524.88;;;7.18;100.00
21902;BME280;11115;46.038;14.612;2024-03-07T08:36:33;98523.16;;;7.27;100.00
21902;BME280;11115;46.038;14.612;2024-03-07T08:39:07;98527.56;;;7.63;100.00
21902;BME280;11115;46.038;14.612;2024-03-07T08:41:42;98525.09;;;7.61;100.00
21902;BME280;11115;46.038;14.612;2024-03-07T08:44:18;98530.41;;;7.52;100.00
21902;BME280;11115;46.038;14.612;2024-03-07T08:46:55;98526.28;;;7.50;100.00
21902;BME280;11115;46.038;14.612;2024-03-07T08:49:25;98526.28;;;7.50;100.00
21902;BME280;11115;46.038;14.612;2024-03-07T08:51:57;98525.00;;;7.71;100.00
21902;BME280;11115;46.038;14.612;2024-03-07T08:54:38;98521.41;;;7.76;100.00
21902;BME280;11115;46.038;14.612;2024-03-07T08:57:11;98530.59;;;7.90;100.00
21902;BME280;11115;46.038;14.612;2024-03-07T08:59:44;98511.06;;;7.91;100.00
21902;BME280;11115;46.038;14.612;2024-03-07T09:02:19;98506.25;;;8.02;100.00
21902;BME280;11115;46.038;14.612;2024-03-07T09:04:55;98517.50;;;8.35;100.00
21902;BME280;11115;46.038;14.612;2024-03-07T09:07:24;98525.28;;;8.51;100.00
21902;BME280;11115;46.038;14.612;2024-03-07T09:10:07;98506.53;;;8.25;100.00
21902;BME280;11115;46.038;14.612;2024-03-07T09:12:49;98523.06;;;8.30;100.00
21902;BME280;11115;46.038;14.612;2024-03-07T09:15:26;98520.38;;;8.19;100.00
21902;BME280;11115;46.038;14.612;2024-03-07T09:17:58;98519.66;;;8.09;100.00
21902;BME280;11115;46.038;14.612;2024-03-07T09:20:31;98531.31;;;8.30;100.00
21902;BME280;11115;46.038;14.612;2024-03-07T09:23:10;98519.28;;;8.20;100.00
21902;BME280;11115;46.038;14.612;2024-03-07T09:25:52;98518.19;;;8.45;100.00
21902;BME280;11115;46.038;14.612;2024-03-07T09:28:27;98517.00;;;8.75;100.00
21902;BME280;11115;46.038;14.612;2024-03-07T09:31:05;98511.28;;;8.91;100.00
21902;BME280;11115;46.038;14.612;2024-03-07T09:33:45;98517.16;;;9.22;100.00
21902;BME280;11115;46.038;14.612;2024-03-07T09:36:18;98514.56;;;9.11;100.00
21902;BME280;11115;46.038;14.612;2024-03-07T09:38:52;98508.94;;;9.17;100.00
21902;BME280;11115;46.038;14.612;2024-03-07T09:41:25;98514.47;;;9.17;100.00
21902;BME280;11115;46.038;14.612;2024-03-07T09:44:01;98505.06;;;9.18;100.00
21902;BME280;11115;46.038;14.612;2024-03-07T09:46:40;98508.56;;;9.23;100.00
21902;BME280;11115;46.038;14.612;2024-03-07T09:49:20;98504.94;;;9.28;100.00
21902;BME280;11115;46.038;14.612;2024-03-07T09:51:55;98512.63;;;9.12;100.00
21902;BME280;11115;46.038;14.612;2024-03-07T09:54:37;98501.38;;;9.41;100.00
21902;BME280;11115;46.038;14.612;2024-03-07T09:57:17;98504.56;;;9.81;100.00
21902;BME280;11115;46.038;14.612;2024-03-07T09:59:51;98496.53;;;9.52;100.00
21902;BME280;11115;46.038;14.612;2024-03-07T10:02:25;98509.56;;;9.65;100.00
21902;BME280;11115;46.038;14.612;2024-03-07T10:04:55;98506.81;;;9.65;100.00
21902;BME280;11115;46.038;14.612;2024-03-07T10:07:37;98493.28;;;9.63;100.00
21902;BME280;11115;46.038;14.612;2024-03-07T10:10:11;98493.78;;;9.33;100.00
21902;BME280;11115;46.038;14.612;2024-03-07T10:12:49;98500.31;;;9.56;100.00
21902;BME280;11115;46.038;14.612;2024-03-07T10:15:30;98497.94;;;9.82;100.00
21902;BME280;11115;46.038;14.612;2024-03-07T10:18:08;98492.44;;;9.63;100.00
21902;BME280;11115;46.038;14.612;2024-03-07T10:20:43;98499.63;;;10.10;100.00
21902;BME280;11115;46.038;14.612;2024-03-07T10:23:22;98486.66;;;9.64;100.00
21902;BME280;11115;46.038;14.612;2024-03-07T10:25:53;98493.03;;;9.92;100.00
21902;BME280;11115;46.038;14.612;2024-03-07T10:28:29;98493.72;;;10.30;100.00
21902;BME280;11115;46.038;14.612;2024-03-07T10:31:00;98488.41;;;10.48;100.00
21902;BME280;11115;46.038;14.612;2024-03-07T10:33:42;98496.56;;;10.80;100.00
21902;BME280;11115;46.038;14.612;2024-03-07T10:36:18;98487.66;;;10.83;100.00
21902;BME280;11115;46.038;14.612;2024-03-07T10:39:04;98492.31;;;10.97;100.00
21902;BME280;11115;46.038;14.612;2024-03-07T10:41:48;98486.91;;;10.78;100.00
21902;BME280;11115;46.038;14.612;2024-03-07T10:44:48;98482.13;;;10.70;100.00
21902;BME280;11115;46.038;14.612;2024-03-07T10:47:39;98481.19;;;10.74;100.00
21902;BME280;11115;46.038;14.612;2024-03-07T11:00:30;98477.41;;;11.20;100.00
21902;BME280;11115;46.038;14.612;2024-03-07T11:03:40;98458.75;;;11.12;100.00
21902;BME280;11115;46.038;14.612;2024-03-07T11:06:20;98418.28;;;10.80;100.00
21902;BME280;11115;46.038;14.612;2024-03-07T11:09:25;98468.69;;;11.13;100.00
21902;BME280;11115;46.038;14.612;2024-03-07T11:12:23;98463.72;;;11.01;100.00
21902;BME280;11115;46.038;14.612;2024-03-07T11:15:19;98461.47;;;11.03;100.00
21902;BME280;11115;46.038;14.612;2024-03-07T11:18:11;98457.25;;;11.28;100.00
21902;BME280;11115;46.038;14.612;2024-03-07T11:21:06;98437.69;;;11.24;100.00
21902;BME280;11115;46.038;14.612;2024-03-07T11:23:55;98451.25;;;12.10;100.00
21902;BME280;11115;46.038;14.612;2024-03-07T11:27:02;98440.56;;;12.26;100.00
21902;BME280;11115;46.038;14.612;2024-03-07T11:29:50;98441.22;;;11.92;100.00
21902;BME280;11115;46.038;14.612;2024-03-07T11:32:53;98391.69;;;11.68;100.00
21902;BME280;11115;46.038;14.612;2024-03-07T11:35:50;98434.22;;;12.34;100.00
21902;BME280;11115;46.038;14.612;2024-03-07T11:38:48;98429.59;;;12.95;100.00
21902;BME280;11115;46.038;14.612;2024-03-07T11:41:26;98425.72;;;13.22;100.00
21902;BME280;11115;46.038;14.612;2024-03-07T11:44:01;98418.03;;;13.36;100.00
21902;BME280;11115;46.038;14.612;2024-03-07T11:46:40;98418.78;;;13.63;100.00
21902;BME280;11115;46.038;14.612;2024-03-07T11:49:15;98412.41;;;13.71;100.00
21902;BME280;11115;46.038;14.612;2024-03-07T11:51:44;98411.63;;;14.09;100.00
21902;BME280;11115;46.038;14.612;2024-03-07T11:54:18;98411.25;;;13.72;100.00
21902;BME280;11115;46.038;14.612;2024-03-07T11:56:57;98416.06;;;13.37;100.00
21902;BME280;11115;46.038;14.612;2024-03-07T11:59:34;98415.72;;;13.04;100.00
21902;BME280;11115;46.038;14.612;2024-03-07T12:02:07;98405.25;;;14.00;100.00
21902;BME280;11115;46.038;14.612;2024-03-07T12:04:42;98398.69;;;14.72;100.00
21902;BME280;11115;46.038;14.612;2024-03-07T12:07:20;98398.09;;;14.28;100.00
21902;BME280;11115;46.038;14.612;2024-03-07T12:10:05;98388.63;;;15.00;100.00
21902;BME280;11115;46.038;14.612;2024-03-07T12:12:38;98383.00;;;15.42;100.00
21902;BME280;11115;46.038;14.612;2024-03-07T12:15:10;98390.88;;;15.61;100.00
21902;BME280;11115;46.038;14.612;2024-03-07T12:17:49;98388.16;;;14.98;100.00
21902;BME280;11115;46.038;14.612;2024-03-07T12:20:19;98388.59;;;14.58;100.00
21902;BME280;11115;46.038;14.612;2024-03-07T12:23:08;98381.03;;;14.00;100.00
21902;BME280;11115;46.038;14.612;2024-03-07T12:25:43;98385.66;;;13.87;100.00
21902;BME280;11115;46.038;14.612;2024-03-07T12:28:21;98385.72;;;13.79;100.00
21902;BME280;11115;46.038;14.612;2024-03-07T12:30:58;98385.09;;;13.64;100.00
21902;BME280;11115;46.038;14.612;2024-03-07T12:33:38;98379.78;;;13.33;100.00
21902;BME280;11115;46.038;14.612;2024-03-07T12:36:12;98386.16;;;13.25;100.00
21902;BME280;11115;46.038;14.612;2024-03-07T12:38:54;98380.94;;;12.98;100.00
21902;BME280;11115;46.038;14.612;2024-03-07T12:41:45;98378.16;;;12.98;100.00
21902;BME280;11115;46.038;14.612;2024-03-07T12:44:27;98375.84;;;13.17;100.00
21902;BME280;11115;46.038;14.612;2024-03-07T12:47:04;98374.56;;;13.23;100.00
21902;BME280;11115;46.038;14.612;2024-03-07T12:49:44;98376.19;;;13.07;100.00
21902;BME280;11115;46.038;14.612;2024-03-07T12:52:25;98373.25;;;13.03;100.00
21902;BME280;11115;46.038;14.612;2024-03-07T12:54:55;98369.34;;;12.79;100.00
21902;BME280;11115;46.038;14.612;2024-03-07T12:57:30;98388.22;;;12.51;100.00
21902;BME280;11115;46.038;14.612;2024-03-07T13:00:07;98392.78;;;11.90;100.00
21902;BME280;11115;46.038;14.612;2024-03-07T13:02:49;98399.75;;;11.25;100.00
21902;BME280;11115;46.038;14.612;2024-03-07T13:05:20;98401.47;;;10.76;100.00
21902;BME280;11115;46.038;14.612;2024-03-07T13:07:55;98406.63;;;10.69;100.00
21902;BME280;11115;46.038;14.612;2024-03-07T13:10:44;98406.44;;;10.52;100.00
21902;BME280;11115;46.038;14.612;2024-03-07T13:13:23;98406.81;;;10.59;100.00
21902;BME280;11115;46.038;14.612;2024-03-07T13:16:01;98398.59;;;10.45;100.00
21902;BME280;11115;46.038;14.612;2024-03-07T13:18:40;98407.31;;;10.25;100.00
21902;BME280;11115;46.038;14.612;2024-03-07T13:21:15;98399.69;;;10.17;100.00
21902;BME280;11115;46.038;14.612;2024-03-07T13:24:01;98387.72;;;9.94;100.00
21902;BME280;11115;46.038;14.612;2024-03-07T13:26:47;98393.56;;;9.79;100.00
21902;BME280;11115;46.038;14.612;2024-03-07T13:29:22;98383.53;;;9.69;100.00
21902;BME280;11115;46.038;14.612;2024-03-07T13:31:55;98391.69;;;9.60;100.00
21902;BME280;11115;46.038;14.612;2024-03-07T13:34:42;98389.69;;;9.66;100.00
21902;BME280;11115;46.038;14.612;2024-03-07T13:37:15;98394.31;;;9.38;100.00
21902;BME280;11115;46.038;14.612;2024-03-07T13:39:50;98394.03;;;9.53;100.00
21902;BME280;11115;46.038;14.612;2024-03-07T13:42:21;98389.69;;;9.66;100.00
21902;BME280;11115;46.038;14.612;2024-03-07T13:44:58;98395.28;;;9.74;100.00
21902;BME280;11115;46.038;14.612;2024-03-07T13:47:40;98390.06;;;9.73;100.00
21902;BME280;11115;46.038;14.612;2024-03-07T13:50:16;98385.38;;;9.87;100.00